sensor_id;sensor_type;location;lat;lon;timestamp;pressure;altitude;pressure_sealevel;temperature;humidity
6198;BME280;3132;42.622;23.328;2022-07-29T00:02:06;93007.28;;;18.18;91.67
6198;BME280;3132;42.622;23.328;2022-07-29T00:04:34;93011.63;;;18.14;91.67
6198;BME280;3132;42.622;23.328;2022-07-29T00:06:59;92996.88;;;18.13;90.99
6198;BME280;3132;42.622;23.328;2022-07-29T00:09:25;93029.13;;;18.35;89.52
6198;BME280;3132;42.622;23.328;2022-07-29T00:11:50;93041.91;;;18.42;87.66
6198;BME280;3132;42.622;23.328;2022-07-29T00:14:16;93043.59;;;18.46;88.74
6198;BME280;3132;42.622;23.328;2022-07-29T00:16:41;93035.09;;;18.41;87.16
6198;BME280;3132;42.622;23.328;2022-07-29T00:19:06;93064.00;;;18.20;88.69
6198;BME280;3132;42.622;23.328;2022-07-29T00:21:32;93051.91;;;18.11;88.08
6198;BME280;3132;42.622;23.328;2022-07-29T00:23:57;93066.03;;;18.23;89.03
6198;BME280;3132;42.622;23.328;2022-07-29T00:26:23;93023.97;;;17.93;89.08
6198;BME280;3132;42.622;23.328;2022-07-29T00:28:48;93056.09;;;18.03;92.30
6198;BME280;3132;42.622;23.328;2022-07-29T00:31:13;93037.28;;;17.96;91.83
6198;BME280;3132;42.622;23.328;2022-07-29T00:33:39;93046.94;;;18.01;92.49
6198;BME280;3132;42.622;23.328;2022-07-29T00:36:04;93024.13;;;17.88;92.80
6198;BME280;3132;42.622;23.328;2022-07-29T00:38:30;93051.13;;;18.02;92.65
6198;BME280;3132;42.622;23.328;2022-07-29T00:40:55;93043.38;;;17.88;92.46
6198;BME280;3132;42.622;23.328;2022-07-29T00:43:21;93050.50;;;17.96;93.12
6198;BME280;3132;42.622;23.328;2022-07-29T00:45:46;93055.19;;;17.82;92.62
6198;BME280;3132;42.622;23.328;2022-07-29T00:48:11;93040.91;;;17.49;93.19
6198;BME280;3132;42.622;23.328;2022-07-29T00:50:38;93066.06;;;17.89;92.93
6198;BME280;3132;42.622;23.328;2022-07-29T00:53:05;93061.41;;;17.78;94.80
6198;BME280;3132;42.622;23.328;2022-07-29T00:55:31;93048.06;;;17.74;94.56
6198;BME280;3132;42.622;23.328;2022-07-29T00:57:58;93053.31;;;17.83;93.72
6198;BME280;3132;42.622;23.328;2022-07-29T01:00:26;93050.38;;;17.76;93.43
6198;BME280;3132;42.622;23.328;2022-07-29T01:02:51;93040.75;;;17.54;94.82
6198;BME280;3132;42.622;23.328;2022-07-29T01:05:19;93048.53;;;17.68;95.21
6198;BME280;3132;42.622;23.328;2022-07-29T01:07:46;93052.84;;;17.63;95.51
6198;BME280;3132;42.622;23.328;2022-07-29T01:10:13;93054.88;;;17.67;94.82
6198;BME280;3132;42.622;23.328;2022-07-29T01:12:39;93052.72;;;17.60;95.00
6198;BME280;3132;42.622;23.328;2022-07-29T01:15:07;93026.72;;;17.28;94.58
6198;BME280;3132;42.622;23.328;2022-07-29T01:17:43;93050.06;;;17.51;94.69
6198;BME280;3132;42.622;23.328;2022-07-29T01:20:36;93051.44;;;17.57;96.50
6198;BME280;3132;42.622;23.328;2022-07-29T01:28:58;93041.31;;;17.42;97.10
6198;BME280;3132;42.622;23.328;2022-07-29T01:31:31;93049.75;;;17.62;96.46
6198;BME280;3132;42.622;23.328;2022-07-29T01:34:02;93039.31;;;17.39;97.75
6198;BME280;3132;42.622;23.328;2022-07-29T01:36:51;93029.69;;;17.35;99.08
6198;BME280;3132;42.622;23.328;2022-07-29T01:39:32;93020.66;;;17.27;100.00
6198;BME280;3132;42.622;23.328;2022-07-29T01:44:58;93023.16;;;17.41;99.43
6198;BME280;3132;42.622;23.328;2022-07-29T01:47:32;93014.91;;;17.25;99.83
6198;BME280;3132;42.622;23.328;2022-07-29T01:50:01;93017.06;;;17.23;99.77
6198;BME280;3132;42.622;23.328;2022-07-29T01:52:34;93019.56;;;17.28;99.87
6198;BME280;3132;42.622;23.328;2022-07-29T01:55:06;93026.09;;;17.31;100.00
6198;BME280;3132;42.622;23.328;2022-07-29T01:57:34;93022.06;;;17.33;100.00
6198;BME280;3132;42.622;23.328;2022-07-29T02:00:01;93024.22;;;17.31;100.00
6198;BME280;3132;42.622;23.328;2022-07-29T02:02:27;93009.94;;;17.32;100.00
6198;BME280;3132;42.622;23.328;2022-07-29T02:04:56;92998.91;;;17.22;100.00
6198;BME280;3132;42.622;23.328;2022-07-29T02:07:23;92993.63;;;17.22;100.00
6198;BME280;3132;42.622;23.328;2022-07-29T02:09:50;93011.81;;;17.32;100.00
6198;BME280;3132;42.622;23.328;2022-07-29T02:12:18;93013.19;;;17.29;100.00
6198;BME280;3132;42.622;23.328;2022-07-29T02:14:51;93014.16;;;17.33;100.00
6198;BME280;3132;42.622;23.328;2022-07-29T02:17:27;92976.41;;;17.07;100.00
6198;BME280;3132;42.622;23.328;2022-07-29T02:19:56;93005.47;;;17.24;100.00
6198;BME280;3132;42.622;23.328;2022-07-29T02:22:22;92997.38;;;17.29;100.00
6198;BME280;3132;42.622;23.328;2022-07-29T02:24:50;93005.31;;;17.46;100.00
6198;BME280;3132;42.622;23.328;2022-07-29T02:27:17;93003.94;;;17.49;99.70
6198;BME280;3132;42.622;23.328;2022-07-29T02:29:46;93007.78;;;17.43;100.00
6198;BME280;3132;42.622;23.328;2022-07-29T02:32:13;93004.34;;;17.34;100.00
6198;BME280;3132;42.622;23.328;2022-07-29T02:34:41;92997.88;;;17.57;100.00
6198;BME280;3132;42.622;23.328;2022-07-29T02:37:11;92998.81;;;17.70;98.99
6198;BME280;3132;42.622;23.328;2022-07-29T02:39:38;92986.66;;;17.86;97.54
6198;BME280;3132;42.622;23.328;2022-07-29T02:42:07;92991.31;;;17.89;98.10
6198;BME280;3132;42.622;23.328;2022-07-29T02:44:33;92979.16;;;17.96;97.22
6198;BME280;3132;42.622;23.328;2022-07-29T02:49:38;92969.66;;;18.12;97.37
6198;BME280;3132;42.622;23.328;2022-07-29T02:52:12;92974.94;;;18.12;96.75
6198;BME280;3132;42.622;23.328;2022-07-29T02:54:53;92967.34;;;18.11;96.36
6198;BME280;3132;42.622;23.328;2022-07-29T02:57:31;92962.34;;;18.18;95.78
6198;BME280;3132;42.622;23.328;2022-07-29T03:00:05;92962.84;;;18.11;96.58
6198;BME280;3132;42.622;23.328;2022-07-29T03:02:38;92962.53;;;18.13;96.76
6198;BME280;3132;42.622;23.328;2022-07-29T03:05:06;92964.81;;;18.23;94.93
6198;BME280;3132;42.622;23.328;2022-07-29T03:07:34;92957.34;;;18.25;90.96
6198;BME280;3132;42.622;23.328;2022-07-29T03:10:00;92942.09;;;17.76;94.75
6198;BME280;3132;42.622;23.328;2022-07-29T03:12:27;92977.22;;;17.68;96.08
6198;BME280;3132;42.622;23.328;2022-07-29T03:14:54;92972.09;;;17.45;97.66
6198;BME280;3132;42.622;23.328;2022-07-29T03:17:20;92973.94;;;17.28;98.78
6198;BME280;3132;42.622;23.328;2022-07-29T03:19:46;92981.22;;;17.31;99.40
6198;BME280;3132;42.622;23.328;2022-07-29T03:22:13;92954.38;;;17.20;98.75
6198;BME280;3132;42.622;23.328;2022-07-29T03:24:39;92986.84;;;17.46;99.10
6198;BME280;3132;42.622;23.328;2022-07-29T03:27:04;92991.16;;;17.34;98.63
6198;BME280;3132;42.622;23.328;2022-07-29T03:29:31;93000.69;;;17.52;98.71
6198;BME280;3132;42.622;23.328;2022-07-29T03:31:56;92976.75;;;17.48;98.38
6198;BME280;3132;42.622;23.328;2022-07-29T03:34:22;92999.72;;;17.39;98.33
6198;BME280;3132;42.622;23.328;2022-07-29T03:36:47;92992.91;;;17.38;99.10
6198;BME280;3132;42.622;23.328;2022-07-29T03:39:17;92999.09;;;17.51;98.70
6198;BME280;3132;42.622;23.328;2022-07-29T03:41:44;93001.59;;;17.56;98.14
6198;BME280;3132;42.622;23.328;2022-07-29T03:44:11;92997.88;;;17.66;97.61
6198;BME280;3132;42.622;23.328;2022-07-29T03:46:38;93010.28;;;17.65;97.62
6198;BME280;3132;42.622;23.328;2022-07-29T03:49:06;93004.69;;;17.67;97.29
6198;BME280;3132;42.622;23.328;2022-07-29T03:51:33;92985.00;;;17.47;98.17
6198;BME280;3132;42.622;23.328;2022-07-29T03:53:59;93005.19;;;17.77;97.33
6198;BME280;3132;42.622;23.328;2022-07-29T03:56:25;93001.75;;;17.85;96.61
6198;BME280;3132;42.622;23.328;2022-07-29T03:58:52;93008.88;;;17.85;96.57
6198;BME280;3132;42.622;23.328;2022-07-29T04:01:18;93006.56;;;17.75;96.95
6198;BME280;3132;42.622;23.328;2022-07-29T04:03:45;92987.16;;;17.62;97.06
6198;BME280;3132;42.622;23.328;2022-07-29T04:06:11;93011.38;;;17.64;97.51
6198;BME280;3132;42.622;23.328;2022-07-29T04:08:37;92995.69;;;17.85;95.95
6198;BME280;3132;42.622;23.328;2022-07-29T04:11:04;93000.47;;;18.08;93.96
6198;BME280;3132;42.622;23.328;2022-07-29T04:13:30;93021.09;;;18.23;94.22
6198;BME280;3132;42.622;23.328;2022-07-29T04:15:56;93006.59;;;18.46;91.50
6198;BME280;3132;42.622;23.328;2022-07-29T04:18:21;93020.53;;;18.64;91.36
6198;BME280;3132;42.622;23.328;2022-07-29T04:20:47;93023.91;;;18.73;91.17
6198;BME280;3132;42.622;23.328;2022-07-29T04:23:12;93020.53;;;18.93;89.91
6198;BME280;3132;42.622;23.328;2022-07-29T04:25:39;93019.81;;;18.84;90.22
6198;BME280;3132;42.622;23.328;2022-07-29T04:28:05;93009.41;;;18.79;89.12
6198;BME280;3132;42.622;23.328;2022-07-29T04:30:31;93011.25;;;18.49;89.42
6198;BME280;3132;42.622;23.328;2022-07-29T04:32:58;93014.94;;;18.94;89.30
6198;BME280;3132;42.622;23.328;2022-07-29T04:35:23;93019.56;;;19.06;86.70
6198;BME280;3132;42.622;23.328;2022-07-29T04:37:49;93014.25;;;19.35;86.30
6198;BME280;3132;42.622;23.328;2022-07-29T04:40:14;93019.00;;;19.50;85.22
6198;BME280;3132;42.622;23.328;2022-07-29T04:42:39;93019.50;;;19.64;84.96
6198;BME280;3132;42.622;23.328;2022-07-29T04:45:05;93020.47;;;19.60;84.68
6198;BME280;3132;42.622;23.328;2022-07-29T04:47:31;93028.91;;;19.94;82.85
6198;BME280;3132;42.622;23.328;2022-07-29T04:49:56;93031.88;;;20.13;82.67
6198;BME280;3132;42.622;23.328;2022-07-29T04:52:22;93037.41;;;20.53;80.01
6198;BME280;3132;42.622;23.328;2022-07-29T04:54:48;93042.16;;;20.47;80.64
6198;BME280;3132;42.622;23.328;2022-07-29T04:57:13;93044.59;;;20.52;82.19
6198;BME280;3132;42.622;23.328;2022-07-29T04:59:39;93046.13;;;20.41;81.88
6198;BME280;3132;42.622;23.328;2022-07-29T05:02:04;93039.34;;;20.89;79.08
6198;BME280;3132;42.622;23.328;2022-07-29T05:04:29;93046.59;;;20.67;79.29
6198;BME280;3132;42.622;23.328;2022-07-29T05:06:55;93047.84;;;20.82;79.07
6198;BME280;3132;42.622;23.328;2022-07-29T05:09:20;93051.53;;;21.02;79.29
6198;BME280;3132;42.622;23.328;2022-07-29T05:11:45;93054.53;;;21.00;78.64
6198;BME280;3132;42.622;23.328;2022-07-29T05:14:11;93055.41;;;21.16;77.55
6198;BME280;3132;42.622;23.328;2022-07-29T05:16:36;93042.75;;;20.77;77.94
6198;BME280;3132;42.622;23.328;2022-07-29T05:19:02;93055.19;;;21.09;77.18
6198;BME280;3132;42.622;23.328;2022-07-29T05:21:28;93062.16;;;20.45;79.69
6198;BME280;3132;42.622;23.328;2022-07-29T05:23:53;93062.53;;;20.80;77.82
6198;BME280;3132;42.622;23.328;2022-07-29T05:26:19;93050.78;;;21.13;76.78
6198;BME280;3132;42.622;23.328;2022-07-29T05:28:44;93061.16;;;21.42;75.89
6198;BME280;3132;42.622;23.328;2022-07-29T05:31:09;93065.25;;;21.28;75.30
6198;BME280;3132;42.622;23.328;2022-07-29T05:33:35;93065.91;;;21.25;76.29
6198;BME280;3132;42.622;23.328;2022-07-29T05:36:00;93052.84;;;21.44;75.64
6198;BME280;3132;42.622;23.328;2022-07-29T05:38:27;93055.19;;;21.45;75.27
6198;BME280;3132;42.622;23.328;2022-07-29T05:40:52;93058.47;;;21.66;75.32
6198;BME280;3132;42.622;23.328;2022-07-29T05:43:17;93060.09;;;21.95;74.35
6198;BME280;3132;42.622;23.328;2022-07-29T05:45:43;93065.41;;;21.95;74.15
6198;BME280;3132;42.622;23.328;2022-07-29T05:48:08;93058.25;;;22.11;74.06
6198;BME280;3132;42.622;23.328;2022-07-29T05:50:33;93072.16;;;22.60;72.22
6198;BME280;3132;42.622;23.328;2022-07-29T05:52:59;93072.31;;;23.75;66.99
6198;BME280;3132;42.622;23.328;2022-07-29T05:55:24;93079.59;;;26.09;59.07
6198;BME280;3132;42.622;23.328;2022-07-29T05:57:52;93079.63;;;26.42;57.88
6198;BME280;3132;42.622;23.328;2022-07-29T06:00:17;93091.66;;;27.76;53.98
6198;BME280;3132;42.622;23.328;2022-07-29T06:02:42;93088.06;;;30.45;46.26
6198;BME280;3132;42.622;23.328;2022-07-29T06:05:08;93104.19;;;32.34;41.13
6198;BME280;3132;42.622;23.328;2022-07-29T06:07:33;93113.03;;;34.35;36.22
6198;BME280;3132;42.622;23.328;2022-07-29T06:09:59;93112.31;;;34.73;33.75
6198;BME280;3132;42.622;23.328;2022-07-29T06:12:24;93106.19;;;34.27;33.84
6198;BME280;3132;42.622;23.328;2022-07-29T06:14:49;93114.00;;;33.75;35.40
6198;BME280;3132;42.622;23.328;2022-07-29T06:17:16;93113.78;;;34.78;32.90
6198;BME280;3132;42.622;23.328;2022-07-29T06:19:41;93106.94;;;35.64;31.28
6198;BME280;3132;42.622;23.328;2022-07-29T06:22:06;93101.47;;;37.14;29.77
6198;BME280;3132;42.622;23.328;2022-07-29T06:24:32;93113.19;;;37.27;29.44
6198;BME280;3132;42.622;23.328;2022-07-29T06:26:57;93112.47;;;36.25;30.19
6198;BME280;3132;42.622;23.328;2022-07-29T06:29:22;93113.66;;;35.92;31.17
6198;BME280;3132;42.622;23.328;2022-07-29T06:31:48;93106.50;;;35.66;31.81
6198;BME280;3132;42.622;23.328;2022-07-29T06:34:13;93116.69;;;36.26;30.13
6198;BME280;3132;42.622;23.328;2022-07-29T06:36:39;93093.50;;;35.41;32.47
6198;BME280;3132;42.622;23.328;2022-07-29T06:39:06;93089.47;;;36.70;30.00
6198;BME280;3132;42.622;23.328;2022-07-29T06:41:31;93096.72;;;34.38;33.38
6198;BME280;3132;42.622;23.328;2022-07-29T06:43:57;93084.09;;;30.74;38.82
6198;BME280;3132;42.622;23.328;2022-07-29T06:46:23;93080.28;;;28.61;45.61
6198;BME280;3132;42.622;23.328;2022-07-29T06:48:49;93063.09;;;27.47;48.24
6198;BME280;3132;42.622;23.328;2022-07-29T06:51:14;93067.47;;;26.82;50.23
6198;BME280;3132;42.622;23.328;2022-07-29T06:53:41;93050.84;;;25.51;54.66
6198;BME280;3132;42.622;23.328;2022-07-29T06:56:07;93060.84;;;25.08;58.25
6198;BME280;3132;42.622;23.328;2022-07-29T06:58:35;93068.72;;;25.24;57.64
6198;BME280;3132;42.622;23.328;2022-07-29T07:01:02;93064.81;;;24.95;59.21
6198;BME280;3132;42.622;23.328;2022-07-29T07:03:28;93048.88;;;24.80;59.44
6198;BME280;3132;42.622;23.328;2022-07-29T07:05:54;93055.72;;;25.00;60.40
6198;BME280;3132;42.622;23.328;2022-07-29T07:08:20;93064.69;;;24.88;60.61
6198;BME280;3132;42.622;23.328;2022-07-29T07:10:47;93053.53;;;24.64;61.17
6198;BME280;3132;42.622;23.328;2022-07-29T07:13:12;93054.81;;;24.70;62.78
6198;BME280;3132;42.622;23.328;2022-07-29T07:15:38;93054.00;;;24.88;62.08
6198;BME280;3132;42.622;23.328;2022-07-29T07:18:04;93059.94;;;25.23;60.33
6198;BME280;3132;42.622;23.328;2022-07-29T07:20:31;93061.63;;;25.09;61.34
6198;BME280;3132;42.622;23.328;2022-07-29T07:22:57;93061.06;;;25.00;59.34
6198;BME280;3132;42.622;23.328;2022-07-29T07:25:22;93041.97;;;24.98;58.18
6198;BME280;3132;42.622;23.328;2022-07-29T07:27:47;93053.75;;;24.97;58.43
6198;BME280;3132;42.622;23.328;2022-07-29T07:30:13;93036.03;;;24.85;60.75
6198;BME280;3132;42.622;23.328;2022-07-29T07:32:38;93059.00;;;24.90;59.53
6198;BME280;3132;42.622;23.328;2022-07-29T07:35:05;93051.97;;;24.63;59.10
6198;BME280;3132;42.622;23.328;2022-07-29T07:37:32;93055.00;;;24.80;59.87
6198;BME280;3132;42.622;23.328;2022-07-29T07:39:57;93052.66;;;24.98;59.49
6198;BME280;3132;42.622;23.328;2022-07-29T07:42:23;93054.13;;;24.73;60.94
6198;BME280;3132;42.622;23.328;2022-07-29T07:44:49;93051.16;;;24.78;58.70
6198;BME280;3132;42.622;23.328;2022-07-29T07:47:15;93057.28;;;25.01;59.54
6198;BME280;3132;42.622;23.328;2022-07-29T07:49:47;93060.19;;;25.15;59.26
6198;BME280;3132;42.622;23.328;2022-07-29T07:52:14;93054.88;;;25.18;57.69
6198;BME280;3132;42.622;23.328;2022-07-29T07:54:40;93052.97;;;25.19;56.96
6198;BME280;3132;42.622;23.328;2022-07-29T07:57:05;93053.47;;;25.24;58.73
6198;BME280;3132;42.622;23.328;2022-07-29T07:59:31;93056.84;;;25.44;57.52
6198;BME280;3132;42.622;23.328;2022-07-29T08:01:57;93049.84;;;25.62;56.84
6198;BME280;3132;42.622;23.328;2022-07-29T08:04:23;93047.91;;;25.85;55.36
6198;BME280;3132;42.622;23.328;2022-07-29T08:06:49;93051.38;;;25.89;55.81
6198;BME280;3132;42.622;23.328;2022-07-29T08:09:15;93048.13;;;25.99;54.47
6198;BME280;3132;42.622;23.328;2022-07-29T08:11:41;93058.91;;;25.80;54.36
6198;BME280;3132;42.622;23.328;2022-07-29T08:14:06;93054.91;;;25.67;56.65
6198;BME280;3132;42.622;23.328;2022-07-29T08:16:32;93056.97;;;25.77;56.16
6198;BME280;3132;42.622;23.328;2022-07-29T08:18:57;93045.91;;;25.79;56.37
6198;BME280;3132;42.622;23.328;2022-07-29T08:21:23;93055.41;;;26.02;54.24
6198;BME280;3132;42.622;23.328;2022-07-29T08:23:50;93045.13;;;25.78;54.21
6198;BME280;3132;42.622;23.328;2022-07-29T08:26:21;93043.03;;;25.65;54.29
6198;BME280;3132;42.622;23.328;2022-07-29T08:28:47;93045.41;;;25.70;53.60
6198;BME280;3132;42.622;23.328;2022-07-29T08:31:16;93024.16;;;25.54;54.01
6198;BME280;3132;42.622;23.328;2022-07-29T08:33:42;93046.66;;;25.79;54.26
6198;BME280;3132;42.622;23.328;2022-07-29T08:36:08;93047.88;;;26.11;53.16
6198;BME280;3132;42.622;23.328;2022-07-29T08:38:34;93039.44;;;26.09;52.38
6198;BME280;3132;42.622;23.328;2022-07-29T08:41:02;93055.97;;;26.15;52.42
6198;BME280;3132;42.622;23.328;2022-07-29T08:43:28;93031.97;;;25.96;51.17
6198;BME280;3132;42.622;23.328;2022-07-29T08:45:54;93048.84;;;26.29;51.02
6198;BME280;3132;42.622;23.328;2022-07-29T08:48:21;93041.09;;;26.54;50.83
6198;BME280;3132;42.622;23.328;2022-07-29T08:50:48;93055.53;;;26.76;50.08
6198;BME280;3132;42.622;23.328;2022-07-29T08:53:16;93058.03;;;26.98;49.20
6198;BME280;3132;42.622;23.328;2022-07-29T08:55:44;93051.94;;;27.01;48.84
6198;BME280;3132;42.622;23.328;2022-07-29T08:58:10;93055.53;;;27.16;49.56
6198;BME280;3132;42.622;23.328;2022-07-29T09:00:38;93054.44;;;27.24;50.41
6198;BME280;3132;42.622;23.328;2022-07-29T09:03:05;93039.59;;;27.30;48.14
6198;BME280;3132;42.622;23.328;2022-07-29T09:05:31;93053.31;;;26.85;53.60
6198;BME280;3132;42.622;23.328;2022-07-29T09:07:58;93052.06;;;27.15;47.12
6198;BME280;3132;42.622;23.328;2022-07-29T09:10:24;93045.41;;;26.99;48.52
6198;BME280;3132;42.622;23.328;2022-07-29T09:12:49;93046.28;;;27.10;49.00
6198;BME280;3132;42.622;23.328;2022-07-29T09:15:15;93044.41;;;27.14;48.66
6198;BME280;3132;42.622;23.328;2022-07-29T09:17:45;93042.78;;;27.06;47.07
6198;BME280;3132;42.622;23.328;2022-07-29T09:20:14;93050.06;;;26.65;48.72
6198;BME280;3132;42.622;23.328;2022-07-29T09:22:40;93048.16;;;26.65;49.87
6198;BME280;3132;42.622;23.328;2022-07-29T09:25:06;93040.31;;;26.87;51.02
6198;BME280;3132;42.622;23.328;2022-07-29T09:27:32;93043.25;;;27.15;49.04
6198;BME280;3132;42.622;23.328;2022-07-29T09:30:05;93035.19;;;27.15;49.56
6198;BME280;3132;42.622;23.328;2022-07-29T09:32:32;93047.69;;;27.37;48.06
6198;BME280;3132;42.622;23.328;2022-07-29T09:35:21;93032.88;;;27.53;47.72
6198;BME280;3132;42.622;23.328;2022-07-29T09:37:47;93048.78;;;27.83;47.75
6198;BME280;3132;42.622;23.328;2022-07-29T09:40:25;93041.66;;;27.54;48.44
6198;BME280;3132;42.622;23.328;2022-07-29T09:42:51;93027.53;;;27.10;51.46
6198;BME280;3132;42.622;23.328;2022-07-29T09:45:31;93039.25;;;27.38;48.83
6198;BME280;3132;42.622;23.328;2022-07-29T09:47:57;93045.84;;;27.48;48.20
6198;BME280;3132;42.622;23.328;2022-07-29T09:50:39;93037.75;;;27.41;50.46
6198;BME280;3132;42.622;23.328;2022-07-29T09:53:05;93030.00;;;27.32;49.65
6198;BME280;3132;42.622;23.328;2022-07-29T09:55:31;93030.66;;;27.66;53.28
6198;BME280;3132;42.622;23.328;2022-07-29T09:58:20;93030.63;;;28.34;46.51
6198;BME280;3132;42.622;23.328;2022-07-29T10:00:47;93035.72;;;28.53;46.77
6198;BME280;3132;42.622;23.328;2022-07-29T10:03:14;93028.41;;;28.50;43.65
6198;BME280;3132;42.622;23.328;2022-07-29T10:05:41;93024.09;;;28.35;45.16
6198;BME280;3132;42.622;23.328;2022-07-29T10:08:07;93029.81;;;28.19;46.41
6198;BME280;3132;42.622;23.328;2022-07-29T10:10:36;93018.97;;;27.95;45.87
6198;BME280;3132;42.622;23.328;2022-07-29T10:13:07;93018.31;;;28.26;46.29
6198;BME280;3132;42.622;23.328;2022-07-29T10:15:35;93012.19;;;28.29;46.59
6198;BME280;3132;42.622;23.328;2022-07-29T10:18:06;93011.81;;;28.31;47.28
6198;BME280;3132;42.622;23.328;2022-07-29T10:20:32;92999.16;;;28.31;47.09
6198;BME280;3132;42.622;23.328;2022-07-29T10:22:57;92985.97;;;27.94;46.88
6198;BME280;3132;42.622;23.328;2022-07-29T10:25:24;93000.84;;;27.85;47.69
6198;BME280;3132;42.622;23.328;2022-07-29T10:27:50;92988.84;;;27.65;47.98
6198;BME280;3132;42.622;23.328;2022-07-29T10:30:21;92990.56;;;27.33;51.35
6198;BME280;3132;42.622;23.328;2022-07-29T10:35:52;92995.28;;;27.50;51.34
6198;BME280;3132;42.622;23.328;2022-07-29T10:38:42;92987.53;;;28.02;49.71
6198;BME280;3132;42.622;23.328;2022-07-29T10:41:33;92996.06;;;28.25;47.18
6198;BME280;3132;42.622;23.328;2022-07-29T10:44:09;92989.13;;;28.10;46.41
6198;BME280;3132;42.622;23.328;2022-07-29T10:46:39;92979.75;;;27.87;47.35
6198;BME280;3132;42.622;23.328;2022-07-29T10:49:16;92988.06;;;27.61;46.97
6198;BME280;3132;42.622;23.328;2022-07-29T10:52:14;92987.66;;;27.59;47.06
6198;BME280;3132;42.622;23.328;2022-07-29T10:54:47;92981.16;;;27.63;47.78
6198;BME280;3132;42.622;23.328;2022-07-29T10:57:15;92978.47;;;27.60;47.00
6198;BME280;3132;42.622;23.328;2022-07-29T10:59:46;92974.31;;;27.66;48.23
6198;BME280;3132;42.622;23.328;2022-07-29T11:05:11;92969.56;;;27.49;47.20
6198;BME280;3132;42.622;23.328;2022-07-29T11:07:39;92978.97;;;27.79;45.31
6198;BME280;3132;42.622;23.328;2022-07-29T11:15:08;92976.94;;;28.45;42.36
6198;BME280;3132;42.622;23.328;2022-07-29T11:20:32;92970.66;;;28.05;45.08
6198;BME280;3132;42.622;23.328;2022-07-29T11:22:59;92965.38;;;28.23;45.04
6198;BME280;3132;42.622;23.328;2022-07-29T11:25:24;92966.16;;;28.31;45.56
6198;BME280;3132;42.622;23.328;2022-07-29T11:28:07;92959.84;;;27.88;44.83
6198;BME280;3132;42.622;23.328;2022-07-29T11:30:53;92956.75;;;27.82;45.30
6198;BME280;3132;42.622;23.328;2022-07-29T11:33:32;92965.31;;;28.09;42.88
6198;BME280;3132;42.622;23.328;2022-07-29T11:36:10;92958.63;;;27.75;44.71
6198;BME280;3132;42.622;23.328;2022-07-29T11:38:36;92955.09;;;27.60;44.32
6198;BME280;3132;42.622;23.328;2022-07-29T11:41:24;92951.09;;;27.30;48.83
6198;BME280;3132;42.622;23.328;2022-07-29T11:43:51;92954.34;;;27.09;45.04
6198;BME280;3132;42.622;23.328;2022-07-29T11:46:45;92948.06;;;27.35;46.93
6198;BME280;3132;42.622;23.328;2022-07-29T11:49:12;92948.16;;;27.56;45.71
6198;BME280;3132;42.622;23.328;2022-07-29T11:51:39;92949.91;;;27.92;43.10
6198;BME280;3132;42.622;23.328;2022-07-29T11:54:05;92951.84;;;28.02;42.79
6198;BME280;3132;42.622;23.328;2022-07-29T11:56:34;92935.41;;;28.10;41.07
6198;BME280;3132;42.622;23.328;2022-07-29T11:59:05;92943.13;;;28.37;41.65
6198;BME280;3132;42.622;23.328;2022-07-29T12:01:31;92948.44;;;28.12;43.27
6198;BME280;3132;42.622;23.328;2022-07-29T12:04:06;92949.47;;;27.83;43.19
6198;BME280;3132;42.622;23.328;2022-07-29T12:06:35;92936.75;;;27.73;42.35
6198;BME280;3132;42.622;23.328;2022-07-29T12:09:06;92946.34;;;27.74;43.30
6198;BME280;3132;42.622;23.328;2022-07-29T12:11:32;92948.22;;;27.66;44.63
6198;BME280;3132;42.622;23.328;2022-07-29T12:13:57;92935.84;;;27.44;43.47
6198;BME280;3132;42.622;23.328;2022-07-29T12:16:23;92944.06;;;27.76;42.24
6198;BME280;3132;42.622;23.328;2022-07-29T12:19:01;92912.44;;;27.38;44.24
6198;BME280;3132;42.622;23.328;2022-07-29T12:21:28;92940.63;;;27.82;42.99
6198;BME280;3132;42.622;23.328;2022-07-29T12:23:55;92938.31;;;27.77;44.41
6198;BME280;3132;42.622;23.328;2022-07-29T12:26:21;92931.53;;;28.01;43.22
6198;BME280;3132;42.622;23.328;2022-07-29T12:28:48;92940.13;;;28.49;40.86
6198;BME280;3132;42.622;23.328;2022-07-29T12:31:14;92949.38;;;28.62;40.53
6198;BME280;3132;42.622;23.328;2022-07-29T12:33:40;92921.75;;;28.72;38.96
6198;BME280;3132;42.622;23.328;2022-07-29T12:36:06;92933.63;;;28.85;38.55
6198;BME280;3132;42.622;23.328;2022-07-29T12:38:31;92934.03;;;28.90;39.73
6198;BME280;3132;42.622;23.328;2022-07-29T12:40:59;92925.94;;;28.62;38.94
6198;BME280;3132;42.622;23.328;2022-07-29T12:43:25;92934.03;;;28.62;41.96
6198;BME280;3132;42.622;23.328;2022-07-29T12:45:53;92932.44;;;28.51;42.00
6198;BME280;3132;42.622;23.328;2022-07-29T12:48:38;92930.09;;;28.28;42.43
6198;BME280;3132;42.622;23.328;2022-07-29T12:51:05;92936.88;;;27.94;44.63
6198;BME280;3132;42.622;23.328;2022-07-29T12:53:32;92931.00;;;27.74;43.89
6198;BME280;3132;42.622;23.328;2022-07-29T12:55:58;92929.63;;;28.08;43.56
6198;BME280;3132;42.622;23.328;2022-07-29T12:58:35;92928.13;;;28.07;46.03
6198;BME280;3132;42.622;23.328;2022-07-29T13:01:10;92915.50;;;28.29;45.52
6198;BME280;3132;42.622;23.328;2022-07-29T13:03:55;92910.97;;;28.68;45.00
6198;BME280;3132;42.622;23.328;2022-07-29T13:09:14;92911.75;;;29.11;42.57
6198;BME280;3132;42.622;23.328;2022-07-29T13:11:42;92894.84;;;28.82;43.91
6198;BME280;3132;42.622;23.328;2022-07-29T13:14:13;92883.34;;;28.85;40.85
6198;BME280;3132;42.622;23.328;2022-07-29T13:19:38;92902.13;;;28.92;39.90
6198;BME280;3132;42.622;23.328;2022-07-29T13:22:09;92902.16;;;29.13;39.91
6198;BME280;3132;42.622;23.328;2022-07-29T13:24:54;92888.31;;;29.15;41.15
6198;BME280;3132;42.622;23.328;2022-07-29T13:27:26;92899.41;;;29.34;39.66
6198;BME280;3132;42.622;23.328;2022-07-29T13:29:54;92894.81;;;29.38;40.27
6198;BME280;3132;42.622;23.328;2022-07-29T13:32:22;92889.75;;;29.54;39.53
6198;BME280;3132;42.622;23.328;2022-07-29T13:34:48;92872.47;;;29.45;41.03
6198;BME280;3132;42.622;23.328;2022-07-29T13:37:13;92889.47;;;29.07;39.04
6198;BME280;3132;42.622;23.328;2022-07-29T13:39:39;92881.38;;;29.38;38.75
6198;BME280;3132;42.622;23.328;2022-07-29T13:42:05;92879.47;;;29.21;39.14
6198;BME280;3132;42.622;23.328;2022-07-29T13:44:31;92881.34;;;29.42;38.00
6198;BME280;3132;42.622;23.328;2022-07-29T13:46:56;92872.50;;;29.41;38.57